< < Back
Terminal Aerodrome Forecast


Current Version              Previous Versions:   1  2  3  4  5  6  7  8  9  

Terminal Aerodrome Forecast

993
FTUS44 KOHX 010500
TAFCSV
TAF
KCSV 010533Z 0106/0206 VRB04KT P6SM OVC250
     FM010900 VRB03KT 4SM BR BKN008 BKN100
     FM011500 20006KT 6SM HZ BKN020
     FM011600 22008KT P6SM SCT040
     FM020100 18003KT P6SM SKC=

Latest METAR

251
SAUS70 KWBC 012100 RRL
MTRCSV
METAR KCSV 012053Z AUTO 25009KT 10SM CLR 29/18 A3011 RMK AO2 SLP174
T02940183 56014


USA.gov is the U.S. government's official web portal to all federal, state and local government web resources and services.